This is the latest recevied weather packets stored in our database for station/object K3TLB-13. If no packets are shown the sender has not sent any weather packets the latest 1 day(s).
| Time | Temp. | Humidity | Pressure | Rain* | Wind** | Luminosity | Snow |
|---|---|---|---|---|---|---|---|
| 1777992098 | 23.33° C | 49% | 1010.4 hPa | 0 mm | 1.34 m/s, 146° | - | - |
| 1777991942 | 23.33° C | 49% | 1010.4 hPa | 0 mm | 1.34 m/s, 146° | - | - |
| 1777991643 | 23.33° C | 49% | 1010.4 hPa | 0 mm | 1.79 m/s, 176° | - | - |
| 1777991342 | 22.78° C | 52% | 1010.5 hPa | 0 mm | 1.79 m/s, 213° | - | - |
| 1777991043 | 22.22° C | 54% | 1010.7 hPa | 0 mm | 2.68 m/s, 148° | - | - |
| 1777990742 | 22.22° C | 51% | 1010.6 hPa | 0 mm | 2.24 m/s, 171° | - | - |
| 1777990443 | 21.67° C | 54% | 1010.7 hPa | 0 mm | 1.79 m/s, 159° | - | - |
| 1777990142 | 21.67° C | 54% | 1010.8 hPa | 0 mm | 1.79 m/s, 200° | - | - |
| 1777989842 | 21.67° C | 55% | 1010.8 hPa | 0 mm | 1.34 m/s, 197° | - | - |
| 1777989544 | 21.11° C | 57% | 1010.9 hPa | 0 mm | 1.34 m/s, 177° | - | - |
| 1777989242 | 20.56° C | 57% | 1010.9 hPa | 0 mm | 1.34 m/s, 194° | - | - |
| 1777988942 | 20.56° C | 55% | 1010.9 hPa | 0 mm | 1.34 m/s, 164° | - | - |
| 1777988689 | 20° C | 57% | 1011.1 hPa | 0 mm | 1.34 m/s, 126° | - | - |
| 1777988642 | 20.56° C | 56% | 1011 hPa | 0 mm | 1.34 m/s, 125° | - | - |
| 1777988342 | 20° C | 57% | 1011.1 hPa | 0 mm | 1.34 m/s, 126° | - | - |
| 1777988042 | 20° C | 57% | 1011.2 hPa | 0 mm | 1.34 m/s, 221° | - | - |
| 1777987780 | 20° C | 59% | 1011.2 hPa | 0 mm | 1.34 m/s, 117° | - | - |
| 1777987742 | 20° C | 59% | 1011.2 hPa | 0 mm | 1.34 m/s, 117° | - | - |
| 1777987443 | 19.44° C | 58% | 1011.2 hPa | 0 mm | 1.34 m/s, 251° | - | - |
| 1777987142 | 19.44° C | 58% | 1011.2 hPa | 0 mm | 1.34 m/s, 184° | - | - |
| 1777986844 | 19.44° C | 59% | 1011.3 hPa | 0 mm | 1.79 m/s, 126° | - | - |
| 1777986732 | 18.89° C | 60% | 1011.3 hPa | 0 mm | 1.79 m/s, 202° | - | - |
| 1777986542 | 18.89° C | 60% | 1011.3 hPa | 0 mm | 1.79 m/s, 202° | - | - |
| 1777986242 | 18.89° C | 61% | 1011.3 hPa | 0 mm | 1.79 m/s, 165° | - | - |
| 1777985944 | 18.33° C | 62% | 1011.3 hPa | 0 mm | 1.79 m/s, 157° | - | - |
* Rain latest hour (hover to see other rain measurements)
** Current wind speed in m/s (hover to see current wind gust speed)